sensor_id;sensor_type;location;lat;lon;timestamp;temperature;humidity
24164;DHT22;12319;49.204;8.116;2023-07-02T00:00:58;18.90;90.90
24164;DHT22;12319;49.204;8.116;2023-07-02T00:03:24;18.80;90.80
24164;DHT22;12319;49.204;8.116;2023-07-02T00:05:50;18.90;90.80
24164;DHT22;12319;49.204;8.116;2023-07-02T00:08:18;18.90;90.80
24164;DHT22;12319;49.204;8.116;2023-07-02T00:10:44;18.90;90.80
24164;DHT22;12319;49.204;8.116;2023-07-02T00:13:09;18.90;90.70
24164;DHT22;12319;49.204;8.116;2023-07-02T00:15:35;18.90;90.80
24164;DHT22;12319;49.204;8.116;2023-07-02T00:18:00;18.90;90.90
24164;DHT22;12319;49.204;8.116;2023-07-02T00:20:26;18.90;90.80
24164;DHT22;12319;49.204;8.116;2023-07-02T00:22:51;18.90;90.80
24164;DHT22;12319;49.204;8.116;2023-07-02T00:25:17;18.90;90.90
24164;DHT22;12319;49.204;8.116;2023-07-02T00:27:42;18.90;90.90
24164;DHT22;12319;49.204;8.116;2023-07-02T00:30:08;18.90;90.90
24164;DHT22;12319;49.204;8.116;2023-07-02T00:32:34;18.90;91.00
24164;DHT22;12319;49.204;8.116;2023-07-02T00:34:59;18.90;90.90
24164;DHT22;12319;49.204;8.116;2023-07-02T00:37:25;18.80;90.90
24164;DHT22;12319;49.204;8.116;2023-07-02T00:39:50;18.80;90.80
24164;DHT22;12319;49.204;8.116;2023-07-02T00:42:17;18.80;90.70
24164;DHT22;12319;49.204;8.116;2023-07-02T00:44:43;18.80;90.70
24164;DHT22;12319;49.204;8.116;2023-07-02T00:47:11;18.80;90.70
24164;DHT22;12319;49.204;8.116;2023-07-02T00:49:37;18.90;91.00
24164;DHT22;12319;49.204;8.116;2023-07-02T00:52:03;18.70;90.80
24164;DHT22;12319;49.204;8.116;2023-07-02T00:54:29;18.70;90.80
24164;DHT22;12319;49.204;8.116;2023-07-02T00:56:55;18.60;90.80
24164;DHT22;12319;49.204;8.116;2023-07-02T00:59:21;18.60;90.80
24164;DHT22;12319;49.204;8.116;2023-07-02T01:01:47;18.60;90.80
24164;DHT22;12319;49.204;8.116;2023-07-02T01:04:18;18.60;90.70
24164;DHT22;12319;49.204;8.116;2023-07-02T01:06:44;18.50;90.80
24164;DHT22;12319;49.204;8.116;2023-07-02T01:09:10;18.60;90.80
24164;DHT22;12319;49.204;8.116;2023-07-02T01:11:44;18.60;90.80
24164;DHT22;12319;49.204;8.116;2023-07-02T01:14:16;18.70;91.00
24164;DHT22;12319;49.204;8.116;2023-07-02T01:16:42;18.70;91.00
24164;DHT22;12319;49.204;8.116;2023-07-02T01:19:36;18.70;91.00
24164;DHT22;12319;49.204;8.116;2023-07-02T01:22:06;18.70;91.10
24164;DHT22;12319;49.204;8.116;2023-07-02T01:24:32;18.80;90.90
24164;DHT22;12319;49.204;8.116;2023-07-02T01:26:58;18.60;90.80
24164;DHT22;12319;49.204;8.116;2023-07-02T01:29:29;18.80;90.80
24164;DHT22;12319;49.204;8.116;2023-07-02T01:31:55;18.70;90.80
24164;DHT22;12319;49.204;8.116;2023-07-02T01:34:20;18.80;90.80
24164;DHT22;12319;49.204;8.116;2023-07-02T01:36:46;18.80;90.80
24164;DHT22;12319;49.204;8.116;2023-07-02T01:39:12;18.80;90.80
24164;DHT22;12319;49.204;8.116;2023-07-02T01:42:10;18.70;90.60
24164;DHT22;12319;49.204;8.116;2023-07-02T01:44:37;18.80;90.90
24164;DHT22;12319;49.204;8.116;2023-07-02T01:47:03;18.80;91.00
24164;DHT22;12319;49.204;8.116;2023-07-02T01:49:28;18.70;90.70
24164;DHT22;12319;49.204;8.116;2023-07-02T01:51:55;18.80;90.70
24164;DHT22;12319;49.204;8.116;2023-07-02T01:54:23;18.70;90.80
24164;DHT22;12319;49.204;8.116;2023-07-02T01:56:48;18.70;90.80
24164;DHT22;12319;49.204;8.116;2023-07-02T01:59:15;18.70;90.80
24164;DHT22;12319;49.204;8.116;2023-07-02T02:01:42;18.70;90.80
24164;DHT22;12319;49.204;8.116;2023-07-02T02:04:08;18.70;90.90
24164;DHT22;12319;49.204;8.116;2023-07-02T02:06:34;18.70;90.90
24164;DHT22;12319;49.204;8.116;2023-07-02T02:09:00;18.60;90.80
24164;DHT22;12319;49.204;8.116;2023-07-02T02:11:33;18.70;90.80
24164;DHT22;12319;49.204;8.116;2023-07-02T02:13:59;18.80;90.90
24164;DHT22;12319;49.204;8.116;2023-07-02T02:16:28;18.60;90.80
24164;DHT22;12319;49.204;8.116;2023-07-02T02:18:54;18.60;90.80
24164;DHT22;12319;49.204;8.116;2023-07-02T02:21:21;18.60;90.90
24164;DHT22;12319;49.204;8.116;2023-07-02T02:23:47;18.60;90.80
24164;DHT22;12319;49.204;8.116;2023-07-02T02:26:13;18.60;90.80
24164;DHT22;12319;49.204;8.116;2023-07-02T02:28:39;18.60;90.70
24164;DHT22;12319;49.204;8.116;2023-07-02T02:31:04;18.60;90.80
24164;DHT22;12319;49.204;8.116;2023-07-02T02:33:31;18.60;90.80
24164;DHT22;12319;49.204;8.116;2023-07-02T02:35:57;18.60;90.70
24164;DHT22;12319;49.204;8.116;2023-07-02T02:38:22;18.50;90.60
24164;DHT22;12319;49.204;8.116;2023-07-02T02:40:48;18.50;90.60
24164;DHT22;12319;49.204;8.116;2023-07-02T02:43:13;18.40;90.60
24164;DHT22;12319;49.204;8.116;2023-07-02T02:45:42;18.40;90.60
24164;DHT22;12319;49.204;8.116;2023-07-02T02:48:07;18.30;90.60
24164;DHT22;12319;49.204;8.116;2023-07-02T02:50:33;18.30;90.60
24164;DHT22;12319;49.204;8.116;2023-07-02T02:52:58;18.20;90.60
24164;DHT22;12319;49.204;8.116;2023-07-02T02:55:24;18.10;90.40
24164;DHT22;12319;49.204;8.116;2023-07-02T02:57:49;18.10;90.40
24164;DHT22;12319;49.204;8.116;2023-07-02T03:00:15;18.10;90.40
24164;DHT22;12319;49.204;8.116;2023-07-02T03:02:42;18.00;90.40
24164;DHT22;12319;49.204;8.116;2023-07-02T03:05:08;18.00;90.30
24164;DHT22;12319;49.204;8.116;2023-07-02T03:07:33;17.90;90.30
24164;DHT22;12319;49.204;8.116;2023-07-02T03:10:00;17.90;90.20
24164;DHT22;12319;49.204;8.116;2023-07-02T03:12:26;17.90;90.20
24164;DHT22;12319;49.204;8.116;2023-07-02T03:14:52;17.80;90.20
24164;DHT22;12319;49.204;8.116;2023-07-02T03:17:20;17.80;90.10
24164;DHT22;12319;49.204;8.116;2023-07-02T03:19:46;17.80;90.20
24164;DHT22;12319;49.204;8.116;2023-07-02T03:22:12;17.70;90.10
24164;DHT22;12319;49.204;8.116;2023-07-02T03:24:38;17.70;90.00
24164;DHT22;12319;49.204;8.116;2023-07-02T03:27:04;17.60;90.00
24164;DHT22;12319;49.204;8.116;2023-07-02T03:29:29;17.60;90.00
24164;DHT22;12319;49.204;8.116;2023-07-02T03:31:55;17.60;90.00
24164;DHT22;12319;49.204;8.116;2023-07-02T03:34:21;17.50;90.00
24164;DHT22;12319;49.204;8.116;2023-07-02T03:36:48;17.50;89.90
24164;DHT22;12319;49.204;8.116;2023-07-02T03:39:14;17.50;89.80
24164;DHT22;12319;49.204;8.116;2023-07-02T03:41:39;17.50;89.80
24164;DHT22;12319;49.204;8.116;2023-07-02T03:44:05;17.40;89.50
24164;DHT22;12319;49.204;8.116;2023-07-02T03:46:31;17.40;89.60
24164;DHT22;12319;49.204;8.116;2023-07-02T03:48:57;17.40;89.60
24164;DHT22;12319;49.204;8.116;2023-07-02T03:51:22;17.40;89.40
24164;DHT22;12319;49.204;8.116;2023-07-02T03:53:48;17.40;89.50
24164;DHT22;12319;49.204;8.116;2023-07-02T03:56:14;17.40;89.30
24164;DHT22;12319;49.204;8.116;2023-07-02T03:58:40;17.40;89.40
24164;DHT22;12319;49.204;8.116;2023-07-02T04:01:05;17.40;89.40
24164;DHT22;12319;49.204;8.116;2023-07-02T04:03:31;17.40;89.50
24164;DHT22;12319;49.204;8.116;2023-07-02T04:05:56;17.40;89.40
24164;DHT22;12319;49.204;8.116;2023-07-02T04:08:22;17.30;89.40
24164;DHT22;12319;49.204;8.116;2023-07-02T04:10:49;17.40;89.50
24164;DHT22;12319;49.204;8.116;2023-07-02T04:13:15;17.40;89.50
24164;DHT22;12319;49.204;8.116;2023-07-02T04:15:40;17.40;89.40
24164;DHT22;12319;49.204;8.116;2023-07-02T04:18:06;17.40;89.20
24164;DHT22;12319;49.204;8.116;2023-07-02T04:20:32;17.40;89.40
24164;DHT22;12319;49.204;8.116;2023-07-02T04:22:57;17.40;89.50
24164;DHT22;12319;49.204;8.116;2023-07-02T04:25:23;17.50;89.60
24164;DHT22;12319;49.204;8.116;2023-07-02T04:27:49;17.50;89.40
24164;DHT22;12319;49.204;8.116;2023-07-02T04:30:14;17.60;89.20
24164;DHT22;12319;49.204;8.116;2023-07-02T04:32:40;17.60;89.10
24164;DHT22;12319;49.204;8.116;2023-07-02T04:35:10;17.70;89.10
24164;DHT22;12319;49.204;8.116;2023-07-02T04:37:36;17.70;88.90
24164;DHT22;12319;49.204;8.116;2023-07-02T04:40:02;17.70;88.40
24164;DHT22;12319;49.204;8.116;2023-07-02T04:42:38;17.70;88.40
24164;DHT22;12319;49.204;8.116;2023-07-02T04:45:05;17.70;88.40
24164;DHT22;12319;49.204;8.116;2023-07-02T04:47:31;17.80;88.30
24164;DHT22;12319;49.204;8.116;2023-07-02T04:49:57;17.80;88.20
24164;DHT22;12319;49.204;8.116;2023-07-02T04:52:23;17.90;88.10
24164;DHT22;12319;49.204;8.116;2023-07-02T04:54:48;17.90;87.90
24164;DHT22;12319;49.204;8.116;2023-07-02T04:57:13;17.90;87.90
24164;DHT22;12319;49.204;8.116;2023-07-02T04:59:41;17.90;87.90
24164;DHT22;12319;49.204;8.116;2023-07-02T05:02:07;18.00;87.80
24164;DHT22;12319;49.204;8.116;2023-07-02T05:04:32;18.00;87.00
24164;DHT22;12319;49.204;8.116;2023-07-02T05:06:59;18.00;87.40
24164;DHT22;12319;49.204;8.116;2023-07-02T05:09:25;18.20;87.40
24164;DHT22;12319;49.204;8.116;2023-07-02T05:11:50;18.20;87.40
24164;DHT22;12319;49.204;8.116;2023-07-02T05:14:16;18.30;87.00
24164;DHT22;12319;49.204;8.116;2023-07-02T05:16:42;18.30;86.80
24164;DHT22;12319;49.204;8.116;2023-07-02T05:19:07;18.40;86.60
24164;DHT22;12319;49.204;8.116;2023-07-02T05:21:33;18.50;86.60
24164;DHT22;12319;49.204;8.116;2023-07-02T05:23:58;18.60;86.40
24164;DHT22;12319;49.204;8.116;2023-07-02T05:26:24;18.80;85.60
24164;DHT22;12319;49.204;8.116;2023-07-02T05:28:49;18.80;86.10
24164;DHT22;12319;49.204;8.116;2023-07-02T05:31:15;18.90;85.90
24164;DHT22;12319;49.204;8.116;2023-07-02T05:33:41;19.10;85.40
24164;DHT22;12319;49.204;8.116;2023-07-02T05:36:06;19.20;85.30
24164;DHT22;12319;49.204;8.116;2023-07-02T05:38:32;19.30;84.60
24164;DHT22;12319;49.204;8.116;2023-07-02T05:40:57;19.50;84.60
24164;DHT22;12319;49.204;8.116;2023-07-02T05:43:23;19.60;84.10
24164;DHT22;12319;49.204;8.116;2023-07-02T05:45:51;19.80;84.00
24164;DHT22;12319;49.204;8.116;2023-07-02T05:48:17;20.00;83.90
24164;DHT22;12319;49.204;8.116;2023-07-02T05:50:43;20.40;83.60
24164;DHT22;12319;49.204;8.116;2023-07-02T05:53:08;21.10;85.10
24164;DHT22;12319;49.204;8.116;2023-07-02T05:55:35;22.70;84.20
24164;DHT22;12319;49.204;8.116;2023-07-02T05:58:00;24.70;79.10
24164;DHT22;12319;49.204;8.116;2023-07-02T06:00:28;26.60;73.40
24164;DHT22;12319;49.204;8.116;2023-07-02T06:02:54;28.40;71.30
24164;DHT22;12319;49.204;8.116;2023-07-02T06:05:19;29.90;69.10
24164;DHT22;12319;49.204;8.116;2023-07-02T06:07:45;31.10;63.80
24164;DHT22;12319;49.204;8.116;2023-07-02T06:10:11;32.10;62.10
24164;DHT22;12319;49.204;8.116;2023-07-02T06:12:36;33.20;59.50
24164;DHT22;12319;49.204;8.116;2023-07-02T06:15:02;34.20;57.50
24164;DHT22;12319;49.204;8.116;2023-07-02T06:17:28;35.00;55.00
24164;DHT22;12319;49.204;8.116;2023-07-02T06:19:56;35.70;54.00
24164;DHT22;12319;49.204;8.116;2023-07-02T06:22:21;36.30;52.00
24164;DHT22;12319;49.204;8.116;2023-07-02T06:24:47;37.00;51.70
24164;DHT22;12319;49.204;8.116;2023-07-02T06:27:13;37.50;50.60
24164;DHT22;12319;49.204;8.116;2023-07-02T06:29:38;38.00;49.20
24164;DHT22;12319;49.204;8.116;2023-07-02T06:32:04;38.30;48.60
24164;DHT22;12319;49.204;8.116;2023-07-02T06:34:30;38.80;47.70
24164;DHT22;12319;49.204;8.116;2023-07-02T06:36:55;39.20;46.40
24164;DHT22;12319;49.204;8.116;2023-07-02T06:39:21;39.60;46.00
24164;DHT22;12319;49.204;8.116;2023-07-02T06:41:46;39.80;45.30
24164;DHT22;12319;49.204;8.116;2023-07-02T06:44:12;40.10;45.00
24164;DHT22;12319;49.204;8.116;2023-07-02T06:46:37;40.50;44.20
24164;DHT22;12319;49.204;8.116;2023-07-02T06:49:03;40.90;43.40
24164;DHT22;12319;49.204;8.116;2023-07-02T06:51:29;41.10;42.50
24164;DHT22;12319;49.204;8.116;2023-07-02T06:53:55;41.30;42.30
24164;DHT22;12319;49.204;8.116;2023-07-02T06:56:20;40.80;41.50
24164;DHT22;12319;49.204;8.116;2023-07-02T06:58:46;40.80;41.50
24164;DHT22;12319;49.204;8.116;2023-07-02T07:01:11;40.80;41.10
24164;DHT22;12319;49.204;8.116;2023-07-02T07:03:37;41.10;39.70
24164;DHT22;12319;49.204;8.116;2023-07-02T07:06:02;40.90;39.20
24164;DHT22;12319;49.204;8.116;2023-07-02T07:08:28;40.90;38.90
24164;DHT22;12319;49.204;8.116;2023-07-02T07:10:54;41.10;39.00
24164;DHT22;12319;49.204;8.116;2023-07-02T07:13:20;41.40;38.40
24164;DHT22;12319;49.204;8.116;2023-07-02T07:15:46;41.40;37.50
24164;DHT22;12319;49.204;8.116;2023-07-02T07:18:12;41.50;37.30
24164;DHT22;12319;49.204;8.116;2023-07-02T07:20:38;41.00;36.50
24164;DHT22;12319;49.204;8.116;2023-07-02T07:23:05;39.90;37.20
24164;DHT22;12319;49.204;8.116;2023-07-02T07:25:31;38.60;35.70
24164;DHT22;12319;49.204;8.116;2023-07-02T07:27:58;37.20;37.70
24164;DHT22;12319;49.204;8.116;2023-07-02T07:30:24;37.00;37.60
24164;DHT22;12319;49.204;8.116;2023-07-02T07:32:50;37.40;38.50
24164;DHT22;12319;49.204;8.116;2023-07-02T07:35:16;38.10;37.70
24164;DHT22;12319;49.204;8.116;2023-07-02T07:37:42;38.70;36.80
24164;DHT22;12319;49.204;8.116;2023-07-02T07:40:08;39.40;37.40
24164;DHT22;12319;49.204;8.116;2023-07-02T07:42:33;40.10;35.90
24164;DHT22;12319;49.204;8.116;2023-07-02T07:44:59;40.00;34.30
24164;DHT22;12319;49.204;8.116;2023-07-02T07:47:24;40.20;35.90
24164;DHT22;12319;49.204;8.116;2023-07-02T07:49:50;40.50;35.40
24164;DHT22;12319;49.204;8.116;2023-07-02T07:52:15;40.70;35.00
24164;DHT22;12319;49.204;8.116;2023-07-02T07:54:41;40.60;34.40
24164;DHT22;12319;49.204;8.116;2023-07-02T07:57:07;40.80;35.20
24164;DHT22;12319;49.204;8.116;2023-07-02T07:59:32;40.00;34.40
24164;DHT22;12319;49.204;8.116;2023-07-02T08:01:58;39.80;33.50
24164;DHT22;12319;49.204;8.116;2023-07-02T08:04:23;39.10;33.30
24164;DHT22;12319;49.204;8.116;2023-07-02T08:06:49;38.50;34.30
24164;DHT22;12319;49.204;8.116;2023-07-02T08:09:15;38.20;34.30
24164;DHT22;12319;49.204;8.116;2023-07-02T08:11:40;37.20;34.50
24164;DHT22;12319;49.204;8.116;2023-07-02T08:14:06;36.00;34.80
24164;DHT22;12319;49.204;8.116;2023-07-02T08:16:31;34.80;35.00
24164;DHT22;12319;49.204;8.116;2023-07-02T08:18:57;33.70;35.00
24164;DHT22;12319;49.204;8.116;2023-07-02T08:21:22;32.80;35.70
24164;DHT22;12319;49.204;8.116;2023-07-02T08:23:48;32.00;36.70
24164;DHT22;12319;49.204;8.116;2023-07-02T08:26:13;30.80;37.20
24164;DHT22;12319;49.204;8.116;2023-07-02T08:28:39;31.10;38.30
24164;DHT22;12319;49.204;8.116;2023-07-02T08:31:05;31.00;37.60
24164;DHT22;12319;49.204;8.116;2023-07-02T08:33:31;30.60;37.80
24164;DHT22;12319;49.204;8.116;2023-07-02T08:35:56;29.90;38.10
24164;DHT22;12319;49.204;8.116;2023-07-02T08:38:23;29.30;38.80
24164;DHT22;12319;49.204;8.116;2023-07-02T08:40:52;28.80;39.80
24164;DHT22;12319;49.204;8.116;2023-07-02T08:43:17;28.50;40.30
24164;DHT22;12319;49.204;8.116;2023-07-02T08:45:43;28.00;40.50
24164;DHT22;12319;49.204;8.116;2023-07-02T08:48:10;27.60;41.10
24164;DHT22;12319;49.204;8.116;2023-07-02T08:50:36;27.20;42.00
24164;DHT22;12319;49.204;8.116;2023-07-02T08:53:02;26.90;42.40
24164;DHT22;12319;49.204;8.116;2023-07-02T08:55:27;26.70;42.80
24164;DHT22;12319;49.204;8.116;2023-07-02T08:57:56;26.50;42.90
24164;DHT22;12319;49.204;8.116;2023-07-02T09:00:26;26.30;43.50
24164;DHT22;12319;49.204;8.116;2023-07-02T09:02:51;26.00;43.50
24164;DHT22;12319;49.204;8.116;2023-07-02T09:05:17;25.90;44.00
24164;DHT22;12319;49.204;8.116;2023-07-02T09:07:47;25.80;44.60
24164;DHT22;12319;49.204;8.116;2023-07-02T09:10:25;25.90;44.70
24164;DHT22;12319;49.204;8.116;2023-07-02T09:13:02;25.90;44.80
24164;DHT22;12319;49.204;8.116;2023-07-02T09:15:43;26.10;44.50
24164;DHT22;12319;49.204;8.116;2023-07-02T09:18:16;26.30;44.60
24164;DHT22;12319;49.204;8.116;2023-07-02T09:20:42;26.40;44.70
24164;DHT22;12319;49.204;8.116;2023-07-02T09:23:08;26.40;44.80
24164;DHT22;12319;49.204;8.116;2023-07-02T09:25:36;26.40;45.00
24164;DHT22;12319;49.204;8.116;2023-07-02T09:28:02;26.40;44.80
24164;DHT22;12319;49.204;8.116;2023-07-02T09:30:27;26.30;45.10
24164;DHT22;12319;49.204;8.116;2023-07-02T09:32:53;26.50;45.00
24164;DHT22;12319;49.204;8.116;2023-07-02T09:35:19;26.70;45.50
24164;DHT22;12319;49.204;8.116;2023-07-02T09:37:46;26.70;45.00
24164;DHT22;12319;49.204;8.116;2023-07-02T09:40:12;26.70;45.20
24164;DHT22;12319;49.204;8.116;2023-07-02T09:42:39;26.70;45.10
24164;DHT22;12319;49.204;8.116;2023-07-02T09:45:08;26.80;45.10
24164;DHT22;12319;49.204;8.116;2023-07-02T09:47:36;26.90;45.30
24164;DHT22;12319;49.204;8.116;2023-07-02T09:50:05;26.90;45.30
24164;DHT22;12319;49.204;8.116;2023-07-02T09:52:31;26.80;44.80
24164;DHT22;12319;49.204;8.116;2023-07-02T09:54:58;26.50;44.30
24164;DHT22;12319;49.204;8.116;2023-07-02T09:57:24;26.40;44.90
24164;DHT22;12319;49.204;8.116;2023-07-02T09:59:49;26.40;44.70
24164;DHT22;12319;49.204;8.116;2023-07-02T10:02:16;26.60;45.20
24164;DHT22;12319;49.204;8.116;2023-07-02T10:04:43;26.70;45.00
24164;DHT22;12319;49.204;8.116;2023-07-02T10:07:09;26.90;44.10
24164;DHT22;12319;49.204;8.116;2023-07-02T10:09:41;27.00;44.20
24164;DHT22;12319;49.204;8.116;2023-07-02T10:12:24;27.00;43.20
24164;DHT22;12319;49.204;8.116;2023-07-02T10:14:52;27.20;43.40
24164;DHT22;12319;49.204;8.116;2023-07-02T10:17:27;27.30;44.40
24164;DHT22;12319;49.204;8.116;2023-07-02T10:19:55;27.30;44.30
24164;DHT22;12319;49.204;8.116;2023-07-02T10:22:21;27.30;44.40
24164;DHT22;12319;49.204;8.116;2023-07-02T10:24:58;27.30;44.40
24164;DHT22;12319;49.204;8.116;2023-07-02T10:27:35;27.30;44.00
24164;DHT22;12319;49.204;8.116;2023-07-02T10:30:02;27.20;44.10
24164;DHT22;12319;49.204;8.116;2023-07-02T10:32:29;27.30;44.20
24164;DHT22;12319;49.204;8.116;2023-07-02T10:34:54;27.20;44.30
24164;DHT22;12319;49.204;8.116;2023-07-02T10:37:20;27.20;44.30
24164;DHT22;12319;49.204;8.116;2023-07-02T10:39:46;27.40;44.50
24164;DHT22;12319;49.204;8.116;2023-07-02T10:42:11;27.30;43.90
24164;DHT22;12319;49.204;8.116;2023-07-02T10:44:49;27.40;43.70
24164;DHT22;12319;49.204;8.116;2023-07-02T10:47:14;27.50;44.00
24164;DHT22;12319;49.204;8.116;2023-07-02T10:49:40;27.60;44.30
24164;DHT22;12319;49.204;8.116;2023-07-02T10:52:06;27.70;44.60
24164;DHT22;12319;49.204;8.116;2023-07-02T10:54:43;27.60;43.30
24164;DHT22;12319;49.204;8.116;2023-07-02T10:57:10;27.60;43.70
24164;DHT22;12319;49.204;8.116;2023-07-02T10:59:37;27.50;44.00
24164;DHT22;12319;49.204;8.116;2023-07-02T11:02:03;27.40;44.30
24164;DHT22;12319;49.204;8.116;2023-07-02T11:04:32;27.30;43.80
24164;DHT22;12319;49.204;8.116;2023-07-02T11:06:59;27.30;44.30
24164;DHT22;12319;49.204;8.116;2023-07-02T11:09:25;27.20;43.70
24164;DHT22;12319;49.204;8.116;2023-07-02T11:11:58;27.20;44.20
24164;DHT22;12319;49.204;8.116;2023-07-02T11:14:27;27.10;43.30
24164;DHT22;12319;49.204;8.116;2023-07-02T11:16:57;27.10;43.80
24164;DHT22;12319;49.204;8.116;2023-07-02T11:19:22;27.00;43.80
24164;DHT22;12319;49.204;8.116;2023-07-02T11:21:53;26.90;44.10
24164;DHT22;12319;49.204;8.116;2023-07-02T11:24:35;26.80;44.10
24164;DHT22;12319;49.204;8.116;2023-07-02T11:27:03;26.90;44.10
24164;DHT22;12319;49.204;8.116;2023-07-02T11:29:30;26.90;44.20
24164;DHT22;12319;49.204;8.116;2023-07-02T11:32:05;27.00;44.20
24164;DHT22;12319;49.204;8.116;2023-07-02T11:34:30;27.10;44.10
24164;DHT22;12319;49.204;8.116;2023-07-02T11:36:56;27.10;44.20
24164;DHT22;12319;49.204;8.116;2023-07-02T11:39:21;27.10;43.70
24164;DHT22;12319;49.204;8.116;2023-07-02T11:41:47;27.00;43.80
24164;DHT22;12319;49.204;8.116;2023-07-02T11:44:14;27.00;43.90
24164;DHT22;12319;49.204;8.116;2023-07-02T11:46:39;27.10;43.90
24164;DHT22;12319;49.204;8.116;2023-07-02T11:49:05;27.10;43.90
24164;DHT22;12319;49.204;8.116;2023-07-02T11:51:33;27.10;44.10
24164;DHT22;12319;49.204;8.116;2023-07-02T11:53:58;27.20;43.90
24164;DHT22;12319;49.204;8.116;2023-07-02T11:56:24;27.30;44.00
24164;DHT22;12319;49.204;8.116;2023-07-02T11:58:49;27.50;44.00
24164;DHT22;12319;49.204;8.116;2023-07-02T12:01:15;27.50;43.50
24164;DHT22;12319;49.204;8.116;2023-07-02T12:03:40;27.80;43.50
24164;DHT22;12319;49.204;8.116;2023-07-02T12:06:06;28.00;43.30
24164;DHT22;12319;49.204;8.116;2023-07-02T12:08:31;28.00;43.40
24164;DHT22;12319;49.204;8.116;2023-07-02T12:10:57;28.10;43.10
24164;DHT22;12319;49.204;8.116;2023-07-02T12:13:22;28.10;43.10
24164;DHT22;12319;49.204;8.116;2023-07-02T12:15:48;28.10;43.10
24164;DHT22;12319;49.204;8.116;2023-07-02T12:18:15;28.10;42.70
24164;DHT22;12319;49.204;8.116;2023-07-02T12:20:40;28.10;42.30
24164;DHT22;12319;49.204;8.116;2023-07-02T12:23:06;27.90;42.10
24164;DHT22;12319;49.204;8.116;2023-07-02T12:25:32;28.00;43.10
24164;DHT22;12319;49.204;8.116;2023-07-02T12:27:57;28.10;42.90
24164;DHT22;12319;49.204;8.116;2023-07-02T12:30:23;28.30;42.50
24164;DHT22;12319;49.204;8.116;2023-07-02T12:32:48;28.50;42.20
24164;DHT22;12319;49.204;8.116;2023-07-02T12:35:14;28.60;42.50
24164;DHT22;12319;49.204;8.116;2023-07-02T12:37:47;28.80;42.00
24164;DHT22;12319;49.204;8.116;2023-07-02T12:40:13;29.00;42.50
24164;DHT22;12319;49.204;8.116;2023-07-02T12:42:40;29.20;39.40
24164;DHT22;12319;49.204;8.116;2023-07-02T12:45:07;29.30;40.50
24164;DHT22;12319;49.204;8.116;2023-07-02T12:47:32;29.10;41.00
24164;DHT22;12319;49.204;8.116;2023-07-02T12:49:58;29.20;41.10
24164;DHT22;12319;49.204;8.116;2023-07-02T12:52:23;29.10;41.30
24164;DHT22;12319;49.204;8.116;2023-07-02T12:54:49;29.10;41.50
24164;DHT22;12319;49.204;8.116;2023-07-02T12:57:14;29.00;41.40
24164;DHT22;12319;49.204;8.116;2023-07-02T12:59:40;29.30;41.40
24164;DHT22;12319;49.204;8.116;2023-07-02T13:02:06;29.70;41.00
24164;DHT22;12319;49.204;8.116;2023-07-02T13:04:31;30.20;39.70
24164;DHT22;12319;49.204;8.116;2023-07-02T13:06:57;30.20;40.30
24164;DHT22;12319;49.204;8.116;2023-07-02T13:09:22;30.20;40.10
24164;DHT22;12319;49.204;8.116;2023-07-02T13:11:48;30.00;40.00
24164;DHT22;12319;49.204;8.116;2023-07-02T13:14:13;29.90;40.30
24164;DHT22;12319;49.204;8.116;2023-07-02T13:16:39;30.00;40.20
24164;DHT22;12319;49.204;8.116;2023-07-02T13:19:04;30.20;40.50
24164;DHT22;12319;49.204;8.116;2023-07-02T13:21:30;30.20;40.10
24164;DHT22;12319;49.204;8.116;2023-07-02T13:23:55;30.50;40.30
24164;DHT22;12319;49.204;8.116;2023-07-02T13:26:21;30.40;38.20
24164;DHT22;12319;49.204;8.116;2023-07-02T13:28:46;30.50;39.10
24164;DHT22;12319;49.204;8.116;2023-07-02T13:31:14;30.70;39.30
24164;DHT22;12319;49.204;8.116;2023-07-02T13:33:40;30.70;39.40
24164;DHT22;12319;49.204;8.116;2023-07-02T13:36:06;30.60;39.10
24164;DHT22;12319;49.204;8.116;2023-07-02T13:38:31;30.60;38.90
24164;DHT22;12319;49.204;8.116;2023-07-02T13:40:57;30.40;39.30
24164;DHT22;12319;49.204;8.116;2023-07-02T13:43:23;30.00;39.50
24164;DHT22;12319;49.204;8.116;2023-07-02T13:45:48;29.80;39.90
24164;DHT22;12319;49.204;8.116;2023-07-02T13:48:14;29.80;39.80
24164;DHT22;12319;49.204;8.116;2023-07-02T13:50:39;30.10;40.00
24164;DHT22;12319;49.204;8.116;2023-07-02T13:53:05;30.40;39.50
24164;DHT22;12319;49.204;8.116;2023-07-02T13:55:30;30.40;39.30
24164;DHT22;12319;49.204;8.116;2023-07-02T13:57:56;30.10;39.60
24164;DHT22;12319;49.204;8.116;2023-07-02T14:00:26;30.00;39.70
24164;DHT22;12319;49.204;8.116;2023-07-02T14:02:52;30.00;39.70
24164;DHT22;12319;49.204;8.116;2023-07-02T14:05:18;30.00;39.30
24164;DHT22;12319;49.204;8.116;2023-07-02T14:07:43;30.10;39.80
24164;DHT22;12319;49.204;8.116;2023-07-02T14:10:09;30.50;39.80
24164;DHT22;12319;49.204;8.116;2023-07-02T14:12:36;30.60;39.70
24164;DHT22;12319;49.204;8.116;2023-07-02T14:15:02;30.50;38.70
24164;DHT22;12319;49.204;8.116;2023-07-02T14:17:27;30.60;39.10
24164;DHT22;12319;49.204;8.116;2023-07-02T14:19:53;30.80;39.10
24164;DHT22;12319;49.204;8.116;2023-07-02T14:22:19;30.90;39.00
24164;DHT22;12319;49.204;8.116;2023-07-02T14:24:44;31.30;38.50
24164;DHT22;12319;49.204;8.116;2023-07-02T14:27:10;31.40;38.70
24164;DHT22;12319;49.204;8.116;2023-07-02T14:29:35;31.30;38.00
24164;DHT22;12319;49.204;8.116;2023-07-02T14:32:01;31.20;38.30
24164;DHT22;12319;49.204;8.116;2023-07-02T14:34:27;31.10;38.60
24164;DHT22;12319;49.204;8.116;2023-07-02T14:36:53;31.20;37.90
24164;DHT22;12319;49.204;8.116;2023-07-02T14:39:18;31.40;38.30
24164;DHT22;12319;49.204;8.116;2023-07-02T14:41:44;31.50;37.30
24164;DHT22;12319;49.204;8.116;2023-07-02T14:44:09;31.70;36.90
24164;DHT22;12319;49.204;8.116;2023-07-02T14:46:35;31.80;37.60
24164;DHT22;12319;49.204;8.116;2023-07-02T14:49:00;32.00;37.50
24164;DHT22;12319;49.204;8.116;2023-07-02T14:51:26;32.00;37.60
24164;DHT22;12319;49.204;8.116;2023-07-02T14:53:51;32.10;37.20
24164;DHT22;12319;49.204;8.116;2023-07-02T14:56:17;32.10;37.20
24164;DHT22;12319;49.204;8.116;2023-07-02T14:58:44;32.10;37.20
24164;DHT22;12319;49.204;8.116;2023-07-02T15:01:09;32.10;37.20
24164;DHT22;12319;49.204;8.116;2023-07-02T15:03:35;32.10;37.20
24164;DHT22;12319;49.204;8.116;2023-07-02T15:06:11;32.00;37.10
24164;DHT22;12319;49.204;8.116;2023-07-02T15:08:38;31.90;37.00
24164;DHT22;12319;49.204;8.116;2023-07-02T15:11:04;31.70;37.30
24164;DHT22;12319;49.204;8.116;2023-07-02T15:13:30;31.60;37.00
24164;DHT22;12319;49.204;8.116;2023-07-02T15:15:55;31.20;37.30
24164;DHT22;12319;49.204;8.116;2023-07-02T15:18:21;30.90;37.20
24164;DHT22;12319;49.204;8.116;2023-07-02T15:20:50;30.60;37.60
24164;DHT22;12319;49.204;8.116;2023-07-02T15:23:16;30.30;38.00
24164;DHT22;12319;49.204;8.116;2023-07-02T15:25:42;30.10;37.80